sensor_id;sensor_type;location;lat;lon;timestamp;temperature;humidity
14061;DHT22;7105;43.616;1.434;2023-05-07T00:00:01;17.60;99.90
14061;DHT22;7105;43.616;1.434;2023-05-07T00:02:27;17.70;99.90
14061;DHT22;7105;43.616;1.434;2023-05-07T00:04:52;17.70;99.90
14061;DHT22;7105;43.616;1.434;2023-05-07T00:07:18;17.60;99.90
14061;DHT22;7105;43.616;1.434;2023-05-07T00:09:44;17.60;99.90
14061;DHT22;7105;43.616;1.434;2023-05-07T00:12:09;17.60;99.90
14061;DHT22;7105;43.616;1.434;2023-05-07T00:14:35;17.60;99.90
14061;DHT22;7105;43.616;1.434;2023-05-07T00:17:01;17.60;99.90
14061;DHT22;7105;43.616;1.434;2023-05-07T00:19:27;17.70;99.90
14061;DHT22;7105;43.616;1.434;2023-05-07T00:21:52;17.50;99.90
14061;DHT22;7105;43.616;1.434;2023-05-07T00:24:19;17.60;99.90
14061;DHT22;7105;43.616;1.434;2023-05-07T00:26:45;17.50;99.90
14061;DHT22;7105;43.616;1.434;2023-05-07T00:29:10;17.50;99.90
14061;DHT22;7105;43.616;1.434;2023-05-07T00:31:38;17.50;99.90
14061;DHT22;7105;43.616;1.434;2023-05-07T00:34:04;17.50;99.90
14061;DHT22;7105;43.616;1.434;2023-05-07T00:36:30;17.50;99.90
14061;DHT22;7105;43.616;1.434;2023-05-07T00:38:57;17.50;99.90
14061;DHT22;7105;43.616;1.434;2023-05-07T00:41:24;17.50;99.90
14061;DHT22;7105;43.616;1.434;2023-05-07T00:43:50;17.50;99.90
14061;DHT22;7105;43.616;1.434;2023-05-07T00:46:17;17.40;99.90
14061;DHT22;7105;43.616;1.434;2023-05-07T00:48:43;17.40;99.90
14061;DHT22;7105;43.616;1.434;2023-05-07T00:51:10;17.40;99.90
14061;DHT22;7105;43.616;1.434;2023-05-07T00:53:36;17.40;99.90
14061;DHT22;7105;43.616;1.434;2023-05-07T00:56:02;17.40;99.90
14061;DHT22;7105;43.616;1.434;2023-05-07T00:58:28;17.20;99.90
14061;DHT22;7105;43.616;1.434;2023-05-07T01:00:55;17.30;99.90
14061;DHT22;7105;43.616;1.434;2023-05-07T01:03:21;17.30;99.90
14061;DHT22;7105;43.616;1.434;2023-05-07T01:05:47;17.20;99.90
14061;DHT22;7105;43.616;1.434;2023-05-07T01:08:14;17.30;99.90
14061;DHT22;7105;43.616;1.434;2023-05-07T01:10:41;17.20;99.90
14061;DHT22;7105;43.616;1.434;2023-05-07T01:13:09;17.20;99.90
14061;DHT22;7105;43.616;1.434;2023-05-07T01:15:36;17.20;99.90
14061;DHT22;7105;43.616;1.434;2023-05-07T01:18:02;17.20;99.90
14061;DHT22;7105;43.616;1.434;2023-05-07T01:20:28;17.20;99.90
14061;DHT22;7105;43.616;1.434;2023-05-07T01:22:55;17.30;99.90
14061;DHT22;7105;43.616;1.434;2023-05-07T01:25:22;17.20;99.90
14061;DHT22;7105;43.616;1.434;2023-05-07T01:27:47;17.10;99.90
14061;DHT22;7105;43.616;1.434;2023-05-07T01:30:13;17.20;99.90
14061;DHT22;7105;43.616;1.434;2023-05-07T01:35:19;17.10;99.90
14061;DHT22;7105;43.616;1.434;2023-05-07T01:37:46;17.10;99.90
14061;DHT22;7105;43.616;1.434;2023-05-07T01:40:13;17.10;99.90
14061;DHT22;7105;43.616;1.434;2023-05-07T01:42:39;17.10;99.90
14061;DHT22;7105;43.616;1.434;2023-05-07T01:45:06;17.20;99.90
14061;DHT22;7105;43.616;1.434;2023-05-07T01:47:32;17.10;99.90
14061;DHT22;7105;43.616;1.434;2023-05-07T01:49:58;17.00;99.90
14061;DHT22;7105;43.616;1.434;2023-05-07T01:52:24;17.00;99.90
14061;DHT22;7105;43.616;1.434;2023-05-07T01:54:50;17.00;99.90
14061;DHT22;7105;43.616;1.434;2023-05-07T01:57:16;17.00;99.90
14061;DHT22;7105;43.616;1.434;2023-05-07T01:59:42;17.00;99.90
14061;DHT22;7105;43.616;1.434;2023-05-07T02:02:07;17.00;99.90
14061;DHT22;7105;43.616;1.434;2023-05-07T02:04:33;16.90;99.90
14061;DHT22;7105;43.616;1.434;2023-05-07T02:06:59;16.90;99.90
14061;DHT22;7105;43.616;1.434;2023-05-07T02:09:24;17.00;99.90
14061;DHT22;7105;43.616;1.434;2023-05-07T02:11:50;16.90;99.90
14061;DHT22;7105;43.616;1.434;2023-05-07T02:14:16;16.90;99.90
14061;DHT22;7105;43.616;1.434;2023-05-07T02:16:41;16.90;99.90
14061;DHT22;7105;43.616;1.434;2023-05-07T02:19:07;16.90;99.90
14061;DHT22;7105;43.616;1.434;2023-05-07T02:21:33;16.90;99.90
14061;DHT22;7105;43.616;1.434;2023-05-07T02:23:58;16.90;99.90
14061;DHT22;7105;43.616;1.434;2023-05-07T02:26:24;16.90;99.90
14061;DHT22;7105;43.616;1.434;2023-05-07T02:28:51;16.80;99.90
14061;DHT22;7105;43.616;1.434;2023-05-07T02:31:17;16.70;99.90
14061;DHT22;7105;43.616;1.434;2023-05-07T02:33:42;16.80;99.90
14061;DHT22;7105;43.616;1.434;2023-05-07T02:36:09;16.70;99.90
14061;DHT22;7105;43.616;1.434;2023-05-07T02:38:35;16.70;99.90
14061;DHT22;7105;43.616;1.434;2023-05-07T02:41:01;16.50;99.90
14061;DHT22;7105;43.616;1.434;2023-05-07T02:43:27;16.50;99.90
14061;DHT22;7105;43.616;1.434;2023-05-07T02:46:06;16.50;99.90
14061;DHT22;7105;43.616;1.434;2023-05-07T02:48:32;16.50;99.90
14061;DHT22;7105;43.616;1.434;2023-05-07T02:50:58;16.50;99.90
14061;DHT22;7105;43.616;1.434;2023-05-07T02:53:25;16.40;99.90
14061;DHT22;7105;43.616;1.434;2023-05-07T02:55:56;16.40;99.90
14061;DHT22;7105;43.616;1.434;2023-05-07T02:58:21;16.30;99.90
14061;DHT22;7105;43.616;1.434;2023-05-07T03:00:47;16.20;99.90
14061;DHT22;7105;43.616;1.434;2023-05-07T03:03:13;16.10;99.90
14061;DHT22;7105;43.616;1.434;2023-05-07T03:05:39;16.10;99.90
14061;DHT22;7105;43.616;1.434;2023-05-07T03:08:05;16.20;99.90
14061;DHT22;7105;43.616;1.434;2023-05-07T03:10:31;16.20;99.90
14061;DHT22;7105;43.616;1.434;2023-05-07T03:12:56;16.10;99.90
14061;DHT22;7105;43.616;1.434;2023-05-07T03:15:22;16.30;99.90
14061;DHT22;7105;43.616;1.434;2023-05-07T03:17:48;16.30;99.90
14061;DHT22;7105;43.616;1.434;2023-05-07T03:20:14;16.40;99.90
14061;DHT22;7105;43.616;1.434;2023-05-07T03:22:43;16.20;99.90
14061;DHT22;7105;43.616;1.434;2023-05-07T03:25:09;16.30;99.90
14061;DHT22;7105;43.616;1.434;2023-05-07T03:27:35;16.20;99.90
14061;DHT22;7105;43.616;1.434;2023-05-07T03:30:01;16.30;99.90
14061;DHT22;7105;43.616;1.434;2023-05-07T03:32:27;16.40;99.90
14061;DHT22;7105;43.616;1.434;2023-05-07T03:34:52;16.50;99.90
14061;DHT22;7105;43.616;1.434;2023-05-07T03:37:18;16.50;99.90
14061;DHT22;7105;43.616;1.434;2023-05-07T03:39:44;16.50;99.90
14061;DHT22;7105;43.616;1.434;2023-05-07T03:42:13;16.40;99.90
14061;DHT22;7105;43.616;1.434;2023-05-07T03:44:38;16.40;99.90
14061;DHT22;7105;43.616;1.434;2023-05-07T03:47:04;16.50;99.90
14061;DHT22;7105;43.616;1.434;2023-05-07T03:49:30;16.40;99.90
14061;DHT22;7105;43.616;1.434;2023-05-07T03:51:56;16.60;99.90
14061;DHT22;7105;43.616;1.434;2023-05-07T03:54:22;16.80;99.90
14061;DHT22;7105;43.616;1.434;2023-05-07T03:56:47;16.70;99.90
14061;DHT22;7105;43.616;1.434;2023-05-07T03:59:13;16.60;99.90
14061;DHT22;7105;43.616;1.434;2023-05-07T04:01:39;16.60;99.90
14061;DHT22;7105;43.616;1.434;2023-05-07T04:04:05;16.60;99.90
14061;DHT22;7105;43.616;1.434;2023-05-07T04:06:31;16.70;99.90
14061;DHT22;7105;43.616;1.434;2023-05-07T04:08:57;16.50;99.90
14061;DHT22;7105;43.616;1.434;2023-05-07T04:11:22;16.50;99.90
14061;DHT22;7105;43.616;1.434;2023-05-07T04:13:48;16.50;99.90
14061;DHT22;7105;43.616;1.434;2023-05-07T04:16:14;16.40;99.90
14061;DHT22;7105;43.616;1.434;2023-05-07T04:18:40;16.40;99.90
14061;DHT22;7105;43.616;1.434;2023-05-07T04:21:19;16.50;99.90
14061;DHT22;7105;43.616;1.434;2023-05-07T04:23:49;16.60;99.90
14061;DHT22;7105;43.616;1.434;2023-05-07T04:26:15;16.50;99.90
14061;DHT22;7105;43.616;1.434;2023-05-07T04:28:43;16.60;99.90
14061;DHT22;7105;43.616;1.434;2023-05-07T04:31:09;16.50;99.90
14061;DHT22;7105;43.616;1.434;2023-05-07T04:33:35;16.50;99.90
14061;DHT22;7105;43.616;1.434;2023-05-07T04:36:02;16.40;99.90
14061;DHT22;7105;43.616;1.434;2023-05-07T04:38:32;16.30;99.90
14061;DHT22;7105;43.616;1.434;2023-05-07T04:41:05;16.50;99.90
14061;DHT22;7105;43.616;1.434;2023-05-07T04:43:31;16.40;99.90
14061;DHT22;7105;43.616;1.434;2023-05-07T04:45:57;16.40;99.90
14061;DHT22;7105;43.616;1.434;2023-05-07T04:48:22;16.40;99.90
14061;DHT22;7105;43.616;1.434;2023-05-07T04:50:51;16.30;99.90
14061;DHT22;7105;43.616;1.434;2023-05-07T04:53:17;16.30;99.90
14061;DHT22;7105;43.616;1.434;2023-05-07T04:55:44;16.40;99.90
14061;DHT22;7105;43.616;1.434;2023-05-07T04:58:13;16.30;99.90
14061;DHT22;7105;43.616;1.434;2023-05-07T05:00:39;16.30;99.90
14061;DHT22;7105;43.616;1.434;2023-05-07T05:03:08;16.40;99.90
14061;DHT22;7105;43.616;1.434;2023-05-07T05:05:33;16.40;99.90
14061;DHT22;7105;43.616;1.434;2023-05-07T05:07:59;16.40;99.90
14061;DHT22;7105;43.616;1.434;2023-05-07T05:10:25;16.30;99.90
14061;DHT22;7105;43.616;1.434;2023-05-07T05:12:51;16.30;99.90
14061;DHT22;7105;43.616;1.434;2023-05-07T05:15:18;16.30;99.90
14061;DHT22;7105;43.616;1.434;2023-05-07T05:17:43;16.20;99.90
14061;DHT22;7105;43.616;1.434;2023-05-07T05:20:09;16.30;99.90
14061;DHT22;7105;43.616;1.434;2023-05-07T05:22:37;16.50;99.90
14061;DHT22;7105;43.616;1.434;2023-05-07T05:25:02;16.50;99.90
14061;DHT22;7105;43.616;1.434;2023-05-07T05:27:28;16.50;99.90
14061;DHT22;7105;43.616;1.434;2023-05-07T05:29:54;16.50;99.90
14061;DHT22;7105;43.616;1.434;2023-05-07T05:32:20;16.40;99.90
14061;DHT22;7105;43.616;1.434;2023-05-07T05:34:45;16.30;99.90
14061;DHT22;7105;43.616;1.434;2023-05-07T05:37:14;16.40;99.90
14061;DHT22;7105;43.616;1.434;2023-05-07T05:39:40;16.30;99.90
14061;DHT22;7105;43.616;1.434;2023-05-07T05:42:06;16.30;99.90
14061;DHT22;7105;43.616;1.434;2023-05-07T05:44:32;16.40;99.90
14061;DHT22;7105;43.616;1.434;2023-05-07T05:46:58;16.50;99.90
14061;DHT22;7105;43.616;1.434;2023-05-07T05:49:24;16.40;99.90
14061;DHT22;7105;43.616;1.434;2023-05-07T05:51:51;16.40;99.90
14061;DHT22;7105;43.616;1.434;2023-05-07T05:54:16;16.30;99.90
14061;DHT22;7105;43.616;1.434;2023-05-07T05:56:42;16.50;99.90
14061;DHT22;7105;43.616;1.434;2023-05-07T05:59:08;16.50;99.90
14061;DHT22;7105;43.616;1.434;2023-05-07T06:01:33;16.50;99.90
14061;DHT22;7105;43.616;1.434;2023-05-07T06:03:59;16.60;99.90
14061;DHT22;7105;43.616;1.434;2023-05-07T06:06:25;16.80;99.90
14061;DHT22;7105;43.616;1.434;2023-05-07T06:08:51;16.60;99.90
14061;DHT22;7105;43.616;1.434;2023-05-07T06:11:17;16.60;99.90
14061;DHT22;7105;43.616;1.434;2023-05-07T06:13:42;16.50;99.90
14061;DHT22;7105;43.616;1.434;2023-05-07T06:16:08;16.60;99.90
14061;DHT22;7105;43.616;1.434;2023-05-07T06:18:34;16.50;99.90
14061;DHT22;7105;43.616;1.434;2023-05-07T06:21:01;16.60;99.90
14061;DHT22;7105;43.616;1.434;2023-05-07T06:23:27;16.40;99.90
14061;DHT22;7105;43.616;1.434;2023-05-07T06:25:53;16.50;99.90
14061;DHT22;7105;43.616;1.434;2023-05-07T06:28:18;16.60;99.90
14061;DHT22;7105;43.616;1.434;2023-05-07T06:30:44;16.50;99.90
14061;DHT22;7105;43.616;1.434;2023-05-07T06:33:13;16.50;99.90
14061;DHT22;7105;43.616;1.434;2023-05-07T06:35:38;16.50;99.90
14061;DHT22;7105;43.616;1.434;2023-05-07T06:38:04;16.40;99.90
14061;DHT22;7105;43.616;1.434;2023-05-07T06:40:30;16.50;99.90
14061;DHT22;7105;43.616;1.434;2023-05-07T06:42:56;16.50;99.90
14061;DHT22;7105;43.616;1.434;2023-05-07T06:45:21;16.50;99.90
14061;DHT22;7105;43.616;1.434;2023-05-07T06:47:47;16.50;99.90
14061;DHT22;7105;43.616;1.434;2023-05-07T06:50:13;16.60;99.90
14061;DHT22;7105;43.616;1.434;2023-05-07T06:52:41;16.70;99.90
14061;DHT22;7105;43.616;1.434;2023-05-07T06:55:07;16.80;99.90
14061;DHT22;7105;43.616;1.434;2023-05-07T06:57:33;16.90;99.90
14061;DHT22;7105;43.616;1.434;2023-05-07T06:59:58;16.90;99.90
14061;DHT22;7105;43.616;1.434;2023-05-07T07:02:24;16.90;99.90
14061;DHT22;7105;43.616;1.434;2023-05-07T07:04:50;17.10;99.90
14061;DHT22;7105;43.616;1.434;2023-05-07T07:07:15;16.90;99.90
14061;DHT22;7105;43.616;1.434;2023-05-07T07:09:41;16.80;99.90
14061;DHT22;7105;43.616;1.434;2023-05-07T07:12:07;16.80;99.90
14061;DHT22;7105;43.616;1.434;2023-05-07T07:14:32;16.70;99.90
14061;DHT22;7105;43.616;1.434;2023-05-07T07:16:58;16.80;99.90
14061;DHT22;7105;43.616;1.434;2023-05-07T07:19:23;16.70;99.90
14061;DHT22;7105;43.616;1.434;2023-05-07T07:21:49;16.70;99.90
14061;DHT22;7105;43.616;1.434;2023-05-07T07:24:15;16.70;99.90
14061;DHT22;7105;43.616;1.434;2023-05-07T07:26:44;16.80;99.90
14061;DHT22;7105;43.616;1.434;2023-05-07T07:29:10;17.00;99.90
14061;DHT22;7105;43.616;1.434;2023-05-07T07:31:36;17.30;99.90
14061;DHT22;7105;43.616;1.434;2023-05-07T07:34:01;17.40;99.90
14061;DHT22;7105;43.616;1.434;2023-05-07T07:36:27;17.30;99.90
14061;DHT22;7105;43.616;1.434;2023-05-07T07:38:53;17.00;99.90
14061;DHT22;7105;43.616;1.434;2023-05-07T07:41:19;16.90;99.90
14061;DHT22;7105;43.616;1.434;2023-05-07T07:43:45;17.10;99.90
14061;DHT22;7105;43.616;1.434;2023-05-07T07:46:12;17.10;99.90
14061;DHT22;7105;43.616;1.434;2023-05-07T07:48:37;17.20;99.90
14061;DHT22;7105;43.616;1.434;2023-05-07T07:51:03;17.30;99.90
14061;DHT22;7105;43.616;1.434;2023-05-07T07:53:30;17.20;99.90
14061;DHT22;7105;43.616;1.434;2023-05-07T07:55:55;17.50;99.90
14061;DHT22;7105;43.616;1.434;2023-05-07T07:58:21;17.50;99.90
14061;DHT22;7105;43.616;1.434;2023-05-07T08:00:47;17.90;99.90
14061;DHT22;7105;43.616;1.434;2023-05-07T08:03:14;18.20;99.90
14061;DHT22;7105;43.616;1.434;2023-05-07T08:05:42;18.40;99.90
14061;DHT22;7105;43.616;1.434;2023-05-07T08:08:08;18.40;99.90
14061;DHT22;7105;43.616;1.434;2023-05-07T08:10:36;18.10;99.90
14061;DHT22;7105;43.616;1.434;2023-05-07T08:13:03;18.60;99.90
14061;DHT22;7105;43.616;1.434;2023-05-07T08:15:29;18.80;99.90
14061;DHT22;7105;43.616;1.434;2023-05-07T08:17:55;19.40;99.90
14061;DHT22;7105;43.616;1.434;2023-05-07T08:20:23;18.90;99.90
14061;DHT22;7105;43.616;1.434;2023-05-07T08:22:48;18.20;99.90
14061;DHT22;7105;43.616;1.434;2023-05-07T08:25:14;18.00;99.90
14061;DHT22;7105;43.616;1.434;2023-05-07T08:27:40;18.20;99.90
14061;DHT22;7105;43.616;1.434;2023-05-07T08:30:06;18.20;99.90
14061;DHT22;7105;43.616;1.434;2023-05-07T08:32:32;18.20;99.90
14061;DHT22;7105;43.616;1.434;2023-05-07T08:34:57;18.50;99.90
14061;DHT22;7105;43.616;1.434;2023-05-07T08:37:23;18.70;99.90
14061;DHT22;7105;43.616;1.434;2023-05-07T08:39:49;19.00;99.90
14061;DHT22;7105;43.616;1.434;2023-05-07T08:42:16;19.60;99.90
14061;DHT22;7105;43.616;1.434;2023-05-07T08:44:45;20.00;99.90
14061;DHT22;7105;43.616;1.434;2023-05-07T08:47:12;21.10;99.90
14061;DHT22;7105;43.616;1.434;2023-05-07T08:49:38;20.50;99.90
14061;DHT22;7105;43.616;1.434;2023-05-07T08:52:03;19.90;99.90
14061;DHT22;7105;43.616;1.434;2023-05-07T08:54:31;19.50;99.90
14061;DHT22;7105;43.616;1.434;2023-05-07T08:56:56;19.40;99.90
14061;DHT22;7105;43.616;1.434;2023-05-07T08:59:22;19.00;99.90
14061;DHT22;7105;43.616;1.434;2023-05-07T09:01:48;18.70;99.90
14061;DHT22;7105;43.616;1.434;2023-05-07T09:04:14;18.50;99.90
14061;DHT22;7105;43.616;1.434;2023-05-07T09:06:39;18.40;99.90
14061;DHT22;7105;43.616;1.434;2023-05-07T09:09:07;18.50;99.90
14061;DHT22;7105;43.616;1.434;2023-05-07T09:11:33;18.20;99.90
14061;DHT22;7105;43.616;1.434;2023-05-07T09:13:59;18.40;99.90
14061;DHT22;7105;43.616;1.434;2023-05-07T09:16:28;19.00;99.90
14061;DHT22;7105;43.616;1.434;2023-05-07T09:18:57;19.40;99.90
14061;DHT22;7105;43.616;1.434;2023-05-07T09:21:22;19.50;99.90
14061;DHT22;7105;43.616;1.434;2023-05-07T09:23:50;19.90;99.90
14061;DHT22;7105;43.616;1.434;2023-05-07T09:26:16;19.90;99.90
14061;DHT22;7105;43.616;1.434;2023-05-07T09:28:43;19.80;99.90
14061;DHT22;7105;43.616;1.434;2023-05-07T09:31:10;20.00;99.90
14061;DHT22;7105;43.616;1.434;2023-05-07T09:33:36;19.70;99.90
14061;DHT22;7105;43.616;1.434;2023-05-07T09:36:05;19.40;99.90
14061;DHT22;7105;43.616;1.434;2023-05-07T09:38:33;19.60;99.90
14061;DHT22;7105;43.616;1.434;2023-05-07T09:41:10;20.00;99.90
14061;DHT22;7105;43.616;1.434;2023-05-07T09:43:39;19.80;99.90
14061;DHT22;7105;43.616;1.434;2023-05-07T09:46:12;19.70;99.90
14061;DHT22;7105;43.616;1.434;2023-05-07T09:48:40;19.00;99.90
14061;DHT22;7105;43.616;1.434;2023-05-07T09:51:25;18.70;99.90
14061;DHT22;7105;43.616;1.434;2023-05-07T09:53:53;18.40;99.90
14061;DHT22;7105;43.616;1.434;2023-05-07T09:56:19;18.40;99.90
14061;DHT22;7105;43.616;1.434;2023-05-07T09:58:45;18.40;99.90
14061;DHT22;7105;43.616;1.434;2023-05-07T10:01:12;18.30;99.90
14061;DHT22;7105;43.616;1.434;2023-05-07T10:03:40;18.10;99.90
14061;DHT22;7105;43.616;1.434;2023-05-07T10:06:08;18.00;99.90
14061;DHT22;7105;43.616;1.434;2023-05-07T10:08:36;17.80;99.90
14061;DHT22;7105;43.616;1.434;2023-05-07T10:11:04;17.90;99.90
14061;DHT22;7105;43.616;1.434;2023-05-07T10:13:30;18.10;99.90
14061;DHT22;7105;43.616;1.434;2023-05-07T10:15:57;18.10;99.90
14061;DHT22;7105;43.616;1.434;2023-05-07T10:18:23;18.40;99.90
14061;DHT22;7105;43.616;1.434;2023-05-07T10:21:01;18.30;99.90
14061;DHT22;7105;43.616;1.434;2023-05-07T10:23:28;18.20;99.90
14061;DHT22;7105;43.616;1.434;2023-05-07T10:25:56;18.50;99.90
14061;DHT22;7105;43.616;1.434;2023-05-07T10:28:24;18.90;99.90
14061;DHT22;7105;43.616;1.434;2023-05-07T10:33:29;19.40;99.90
14061;DHT22;7105;43.616;1.434;2023-05-07T10:35:58;19.90;99.90
14061;DHT22;7105;43.616;1.434;2023-05-07T10:38:26;20.20;99.90
14061;DHT22;7105;43.616;1.434;2023-05-07T10:40:53;20.40;99.90
14061;DHT22;7105;43.616;1.434;2023-05-07T10:43:18;20.20;99.90
14061;DHT22;7105;43.616;1.434;2023-05-07T10:46:20;20.50;99.90
14061;DHT22;7105;43.616;1.434;2023-05-07T10:49:12;20.10;99.90
14061;DHT22;7105;43.616;1.434;2023-05-07T10:51:39;19.80;99.90
14061;DHT22;7105;43.616;1.434;2023-05-07T10:56:37;19.60;99.90
14061;DHT22;7105;43.616;1.434;2023-05-07T11:02:02;20.90;99.90
14061;DHT22;7105;43.616;1.434;2023-05-07T11:04:29;20.30;99.90
14061;DHT22;7105;43.616;1.434;2023-05-07T11:15:13;19.80;99.90
14061;DHT22;7105;43.616;1.434;2023-05-07T11:17:55;20.40;99.90
14061;DHT22;7105;43.616;1.434;2023-05-07T11:26:03;20.90;99.90
14061;DHT22;7105;43.616;1.434;2023-05-07T11:28:30;21.10;99.90
14061;DHT22;7105;43.616;1.434;2023-05-07T11:30:57;20.80;99.90
14061;DHT22;7105;43.616;1.434;2023-05-07T11:33:23;21.10;99.90
14061;DHT22;7105;43.616;1.434;2023-05-07T11:35:52;21.10;99.90
14061;DHT22;7105;43.616;1.434;2023-05-07T11:38:19;21.20;99.90
14061;DHT22;7105;43.616;1.434;2023-05-07T11:40:57;21.10;99.90
14061;DHT22;7105;43.616;1.434;2023-05-07T11:43:24;21.00;99.90
14061;DHT22;7105;43.616;1.434;2023-05-07T11:45:50;20.90;99.90
14061;DHT22;7105;43.616;1.434;2023-05-07T11:48:16;21.40;99.90
14061;DHT22;7105;43.616;1.434;2023-05-07T11:53:27;21.30;99.90
14061;DHT22;7105;43.616;1.434;2023-05-07T11:55:55;21.10;99.90
14061;DHT22;7105;43.616;1.434;2023-05-07T11:58:22;21.30;99.90
14061;DHT22;7105;43.616;1.434;2023-05-07T12:00:52;21.10;99.90
14061;DHT22;7105;43.616;1.434;2023-05-07T12:03:19;21.30;99.90
14061;DHT22;7105;43.616;1.434;2023-05-07T12:05:45;21.10;99.90
14061;DHT22;7105;43.616;1.434;2023-05-07T12:08:18;21.10;99.90
14061;DHT22;7105;43.616;1.434;2023-05-07T12:10:45;21.30;99.90
14061;DHT22;7105;43.616;1.434;2023-05-07T12:13:21;21.40;99.90
14061;DHT22;7105;43.616;1.434;2023-05-07T12:15:53;21.40;99.90
14061;DHT22;7105;43.616;1.434;2023-05-07T12:18:20;21.30;99.90
14061;DHT22;7105;43.616;1.434;2023-05-07T12:20:46;21.70;99.90
14061;DHT22;7105;43.616;1.434;2023-05-07T12:23:13;21.60;99.90
14061;DHT22;7105;43.616;1.434;2023-05-07T12:25:39;21.70;99.90
14061;DHT22;7105;43.616;1.434;2023-05-07T12:28:07;21.80;99.90
14061;DHT22;7105;43.616;1.434;2023-05-07T12:30:37;22.00;99.90
14061;DHT22;7105;43.616;1.434;2023-05-07T12:33:03;22.50;99.90
14061;DHT22;7105;43.616;1.434;2023-05-07T12:35:37;22.30;99.90
14061;DHT22;7105;43.616;1.434;2023-05-07T12:38:08;22.30;99.90
14061;DHT22;7105;43.616;1.434;2023-05-07T12:40:47;22.40;99.90
14061;DHT22;7105;43.616;1.434;2023-05-07T12:43:17;21.80;99.90
14061;DHT22;7105;43.616;1.434;2023-05-07T12:45:44;21.60;99.90
14061;DHT22;7105;43.616;1.434;2023-05-07T12:48:11;21.30;99.90
14061;DHT22;7105;43.616;1.434;2023-05-07T12:50:37;21.30;99.90
14061;DHT22;7105;43.616;1.434;2023-05-07T12:53:06;21.00;99.90
14061;DHT22;7105;43.616;1.434;2023-05-07T12:55:44;21.20;99.90
14061;DHT22;7105;43.616;1.434;2023-05-07T12:58:20;20.80;99.90
14061;DHT22;7105;43.616;1.434;2023-05-07T13:00:48;21.40;99.90
14061;DHT22;7105;43.616;1.434;2023-05-07T13:03:26;21.20;99.90
14061;DHT22;7105;43.616;1.434;2023-05-07T13:05:53;21.00;99.90
14061;DHT22;7105;43.616;1.434;2023-05-07T13:08:31;21.30;99.90
14061;DHT22;7105;43.616;1.434;2023-05-07T13:11:00;21.80;99.90
14061;DHT22;7105;43.616;1.434;2023-05-07T13:13:32;22.10;99.90
14061;DHT22;7105;43.616;1.434;2023-05-07T13:15:59;21.70;99.90
14061;DHT22;7105;43.616;1.434;2023-05-07T13:18:25;21.70;99.90
14061;DHT22;7105;43.616;1.434;2023-05-07T13:20:52;21.60;99.90
14061;DHT22;7105;43.616;1.434;2023-05-07T13:23:18;22.20;99.90
14061;DHT22;7105;43.616;1.434;2023-05-07T13:25:44;21.90;99.90
14061;DHT22;7105;43.616;1.434;2023-05-07T13:28:09;22.20;99.90
14061;DHT22;7105;43.616;1.434;2023-05-07T13:30:35;21.70;99.90
14061;DHT22;7105;43.616;1.434;2023-05-07T13:33:01;22.10;99.90
14061;DHT22;7105;43.616;1.434;2023-05-07T13:35:27;22.40;99.90
14061;DHT22;7105;43.616;1.434;2023-05-07T13:37:53;22.30;99.90
14061;DHT22;7105;43.616;1.434;2023-05-07T13:40:20;22.60;99.90
14061;DHT22;7105;43.616;1.434;2023-05-07T13:42:47;22.10;99.90
14061;DHT22;7105;43.616;1.434;2023-05-07T13:45:13;21.80;99.90
14061;DHT22;7105;43.616;1.434;2023-05-07T13:47:41;21.60;99.90
14061;DHT22;7105;43.616;1.434;2023-05-07T13:50:10;21.60;99.90
14061;DHT22;7105;43.616;1.434;2023-05-07T13:52:43;21.30;99.90
14061;DHT22;7105;43.616;1.434;2023-05-07T13:55:12;21.20;99.90
14061;DHT22;7105;43.616;1.434;2023-05-07T13:57:38;21.20;99.90
14061;DHT22;7105;43.616;1.434;2023-05-07T14:00:04;21.30;99.90
14061;DHT22;7105;43.616;1.434;2023-05-07T14:02:31;21.40;99.90
14061;DHT22;7105;43.616;1.434;2023-05-07T14:04:56;21.60;99.90
14061;DHT22;7105;43.616;1.434;2023-05-07T14:07:22;21.70;99.90
14061;DHT22;7105;43.616;1.434;2023-05-07T14:09:48;21.70;99.90
14061;DHT22;7105;43.616;1.434;2023-05-07T14:12:13;22.00;99.90
14061;DHT22;7105;43.616;1.434;2023-05-07T14:14:39;22.10;99.90
14061;DHT22;7105;43.616;1.434;2023-05-07T14:17:05;22.00;99.90
14061;DHT22;7105;43.616;1.434;2023-05-07T14:19:31;21.90;99.90
14061;DHT22;7105;43.616;1.434;2023-05-07T14:21:56;22.20;99.90
14061;DHT22;7105;43.616;1.434;2023-05-07T14:24:23;22.30;99.90
14061;DHT22;7105;43.616;1.434;2023-05-07T14:26:49;22.40;99.90
14061;DHT22;7105;43.616;1.434;2023-05-07T14:29:15;22.50;99.90
14061;DHT22;7105;43.616;1.434;2023-05-07T14:31:44;22.50;99.90
14061;DHT22;7105;43.616;1.434;2023-05-07T14:34:13;22.60;99.90
14061;DHT22;7105;43.616;1.434;2023-05-07T14:36:38;22.70;99.90
14061;DHT22;7105;43.616;1.434;2023-05-07T14:39:04;22.80;99.90
14061;DHT22;7105;43.616;1.434;2023-05-07T14:41:30;22.80;99.90
14061;DHT22;7105;43.616;1.434;2023-05-07T14:43:57;22.90;99.90
14061;DHT22;7105;43.616;1.434;2023-05-07T14:46:24;22.50;99.90
14061;DHT22;7105;43.616;1.434;2023-05-07T14:48:50;21.90;99.90
14061;DHT22;7105;43.616;1.434;2023-05-07T14:51:15;21.80;99.90
14061;DHT22;7105;43.616;1.434;2023-05-07T14:53:42;21.80;99.90
14061;DHT22;7105;43.616;1.434;2023-05-07T14:56:07;21.70;99.90
14061;DHT22;7105;43.616;1.434;2023-05-07T14:58:34;21.50;99.90
14061;DHT22;7105;43.616;1.434;2023-05-07T15:01:00;21.60;99.90
14061;DHT22;7105;43.616;1.434;2023-05-07T15:03:26;21.60;99.90
14061;DHT22;7105;43.616;1.434;2023-05-07T15:05:51;21.60;99.90
14061;DHT22;7105;43.616;1.434;2023-05-07T15:08:18;21.50;99.90
14061;DHT22;7105;43.616;1.434;2023-05-07T15:10:43;21.70;99.90
14061;DHT22;7105;43.616;1.434;2023-05-07T15:13:10;22.00;99.90
14061;DHT22;7105;43.616;1.434;2023-05-07T15:15:36;21.90;99.90
14061;DHT22;7105;43.616;1.434;2023-05-07T15:18:03;22.00;99.90
14061;DHT22;7105;43.616;1.434;2023-05-07T15:20:29;21.80;99.90
14061;DHT22;7105;43.616;1.434;2023-05-07T15:22:55;21.90;99.90
14061;DHT22;7105;43.616;1.434;2023-05-07T15:25:21;21.70;99.90
14061;DHT22;7105;43.616;1.434;2023-05-07T15:27:47;21.60;99.90
14061;DHT22;7105;43.616;1.434;2023-05-07T15:30:13;21.40;99.90
14061;DHT22;7105;43.616;1.434;2023-05-07T15:32:40;21.50;99.90
14061;DHT22;7105;43.616;1.434;2023-05-07T15:35:07;21.50;99.90
14061;DHT22;7105;43.616;1.434;2023-05-07T15:37:33;21.60;99.90
14061;DHT22;7105;43.616;1.434;2023-05-07T15:39:59;21.60;99.90
14061;DHT22;7105;43.616;1.434;2023-05-07T15:42:25;21.60;99.90
14061;DHT22;7105;43.616;1.434;2023-05-07T15:44:51;21.30;99.90
14061;DHT22;7105;43.616;1.434;2023-05-07T15:47:17;20.40;99.90
14061;DHT22;7105;43.616;1.434;2023-05-07T15:49:42;20.10;99.90
14061;DHT22;7105;43.616;1.434;2023-05-07T15:52:08;20.20;99.90
14061;DHT22;7105;43.616;1.434;2023-05-07T15:54:43;20.40;99.90
14061;DHT22;7105;43.616;1.434;2023-05-07T15:57:09;20.70;99.90
14061;DHT22;7105;43.616;1.434;2023-05-07T15:59:36;20.70;99.90
14061;DHT22;7105;43.616;1.434;2023-05-07T16:02:02;20.80;99.90
14061;DHT22;7105;43.616;1.434;2023-05-07T16:04:28;20.30;99.90
14061;DHT22;7105;43.616;1.434;2023-05-07T16:06:54;20.20;99.90
14061;DHT22;7105;43.616;1.434;2023-05-07T16:09:19;20.00;99.90